sensor_id;sensor_type;location;lat;lon;timestamp;P1;durP1;ratioP1;P2;durP2;ratioP2
4148;SDS011;2088;51.032;7.082;2023-03-15T00:01:35;12.50;;;2.40;;
4148;SDS011;2088;51.032;7.082;2023-03-15T00:04:02;4.60;;;1.97;;
4148;SDS011;2088;51.032;7.082;2023-03-15T00:06:30;6.07;;;2.90;;
4148;SDS011;2088;51.032;7.082;2023-03-15T00:08:57;9.10;;;2.13;;
4148;SDS011;2088;51.032;7.082;2023-03-15T00:11:27;6.47;;;2.93;;
4148;SDS011;2088;51.032;7.082;2023-03-15T00:13:55;4.93;;;2.27;;
4148;SDS011;2088;51.032;7.082;2023-03-15T00:16:22;5.60;;;2.50;;
4148;SDS011;2088;51.032;7.082;2023-03-15T00:18:51;8.97;;;2.80;;
4148;SDS011;2088;51.032;7.082;2023-03-15T00:21:19;7.30;;;3.10;;
4148;SDS011;2088;51.032;7.082;2023-03-15T00:23:46;7.77;;;2.40;;
4148;SDS011;2088;51.032;7.082;2023-03-15T00:26:13;4.77;;;2.23;;
4148;SDS011;2088;51.032;7.082;2023-03-15T00:28:42;7.23;;;3.40;;
4148;SDS011;2088;51.032;7.082;2023-03-15T00:31:11;3.70;;;2.73;;
4148;SDS011;2088;51.032;7.082;2023-03-15T00:33:39;8.37;;;2.40;;
4148;SDS011;2088;51.032;7.082;2023-03-15T00:36:07;7.90;;;1.93;;
4148;SDS011;2088;51.032;7.082;2023-03-15T00:38:34;4.77;;;3.03;;
4148;SDS011;2088;51.032;7.082;2023-03-15T00:41:05;8.20;;;2.67;;
4148;SDS011;2088;51.032;7.082;2023-03-15T00:43:32;7.20;;;3.37;;
4148;SDS011;2088;51.032;7.082;2023-03-15T00:46:01;4.40;;;2.40;;
4148;SDS011;2088;51.032;7.082;2023-03-15T00:48:28;8.93;;;3.73;;
4148;SDS011;2088;51.032;7.082;2023-03-15T00:51:02;18.80;;;2.90;;
4148;SDS011;2088;51.032;7.082;2023-03-15T00:53:29;7.80;;;3.03;;
4148;SDS011;2088;51.032;7.082;2023-03-15T00:55:56;9.57;;;3.00;;
4148;SDS011;2088;51.032;7.082;2023-03-15T00:58:24;8.67;;;2.97;;
4148;SDS011;2088;51.032;7.082;2023-03-15T01:00:51;6.07;;;3.10;;
4148;SDS011;2088;51.032;7.082;2023-03-15T01:03:20;6.10;;;3.90;;
4148;SDS011;2088;51.032;7.082;2023-03-15T01:05:47;11.10;;;2.30;;
4148;SDS011;2088;51.032;7.082;2023-03-15T01:08:14;5.03;;;2.30;;
4148;SDS011;2088;51.032;7.082;2023-03-15T01:10:41;9.40;;;2.40;;
4148;SDS011;2088;51.032;7.082;2023-03-15T01:13:08;6.47;;;3.20;;
4148;SDS011;2088;51.032;7.082;2023-03-15T01:15:35;7.30;;;3.00;;
4148;SDS011;2088;51.032;7.082;2023-03-15T01:18:02;6.30;;;2.83;;
4148;SDS011;2088;51.032;7.082;2023-03-15T01:20:30;14.47;;;2.93;;
4148;SDS011;2088;51.032;7.082;2023-03-15T01:22:57;18.17;;;3.67;;
4148;SDS011;2088;51.032;7.082;2023-03-15T01:25:24;10.73;;;3.17;;
4148;SDS011;2088;51.032;7.082;2023-03-15T01:27:51;3.80;;;2.83;;
4148;SDS011;2088;51.032;7.082;2023-03-15T01:30:18;9.00;;;4.00;;
4148;SDS011;2088;51.032;7.082;2023-03-15T01:32:45;6.37;;;3.27;;
4148;SDS011;2088;51.032;7.082;2023-03-15T01:35:12;7.17;;;3.20;;
4148;SDS011;2088;51.032;7.082;2023-03-15T01:37:41;8.17;;;3.10;;
4148;SDS011;2088;51.032;7.082;2023-03-15T01:40:10;6.57;;;2.93;;
4148;SDS011;2088;51.032;7.082;2023-03-15T01:42:49;13.43;;;3.73;;
4148;SDS011;2088;51.032;7.082;2023-03-15T01:48:02;5.77;;;3.20;;
4148;SDS011;2088;51.032;7.082;2023-03-15T01:50:30;5.83;;;4.07;;
4148;SDS011;2088;51.032;7.082;2023-03-15T01:52:58;8.47;;;4.00;;
4148;SDS011;2088;51.032;7.082;2023-03-15T01:55:25;13.33;;;4.23;;
4148;SDS011;2088;51.032;7.082;2023-03-15T01:57:53;15.23;;;5.77;;
4148;SDS011;2088;51.032;7.082;2023-03-15T02:00:21;9.23;;;3.30;;
4148;SDS011;2088;51.032;7.082;2023-03-15T02:02:49;5.87;;;3.27;;
4148;SDS011;2088;51.032;7.082;2023-03-15T02:05:18;10.00;;;3.80;;
4148;SDS011;2088;51.032;7.082;2023-03-15T02:07:46;13.33;;;3.73;;
4148;SDS011;2088;51.032;7.082;2023-03-15T02:10:16;9.03;;;4.07;;
4148;SDS011;2088;51.032;7.082;2023-03-15T02:12:45;6.20;;;3.60;;
4148;SDS011;2088;51.032;7.082;2023-03-15T02:15:13;7.33;;;3.20;;
4148;SDS011;2088;51.032;7.082;2023-03-15T02:17:41;7.57;;;3.30;;
4148;SDS011;2088;51.032;7.082;2023-03-15T02:20:16;6.00;;;1.90;;
4148;SDS011;2088;51.032;7.082;2023-03-15T02:22:46;3.63;;;2.40;;
4148;SDS011;2088;51.032;7.082;2023-03-15T02:25:19;4.50;;;2.30;;
4148;SDS011;2088;51.032;7.082;2023-03-15T02:27:49;5.83;;;2.40;;
4148;SDS011;2088;51.032;7.082;2023-03-15T02:30:16;6.60;;;2.20;;
4148;SDS011;2088;51.032;7.082;2023-03-15T02:32:43;2.90;;;2.00;;
4148;SDS011;2088;51.032;7.082;2023-03-15T02:35:11;4.80;;;2.93;;
4148;SDS011;2088;51.032;7.082;2023-03-15T02:37:38;3.43;;;2.17;;
4148;SDS011;2088;51.032;7.082;2023-03-15T02:40:12;3.13;;;1.70;;
4148;SDS011;2088;51.032;7.082;2023-03-15T02:42:42;4.10;;;2.10;;
4148;SDS011;2088;51.032;7.082;2023-03-15T02:45:11;6.80;;;2.30;;
4148;SDS011;2088;51.032;7.082;2023-03-15T02:47:38;7.93;;;2.50;;
4148;SDS011;2088;51.032;7.082;2023-03-15T02:50:05;2.20;;;1.80;;
4148;SDS011;2088;51.032;7.082;2023-03-15T02:52:32;2.20;;;1.63;;
4148;SDS011;2088;51.032;7.082;2023-03-15T02:54:59;2.20;;;2.00;;
4148;SDS011;2088;51.032;7.082;2023-03-15T02:57:27;3.53;;;1.53;;
4148;SDS011;2088;51.032;7.082;2023-03-15T02:59:55;5.27;;;2.07;;
4148;SDS011;2088;51.032;7.082;2023-03-15T03:02:24;2.17;;;1.93;;
4148;SDS011;2088;51.032;7.082;2023-03-15T03:04:51;2.67;;;1.77;;
4148;SDS011;2088;51.032;7.082;2023-03-15T03:07:18;5.40;;;2.10;;
4148;SDS011;2088;51.032;7.082;2023-03-15T03:09:45;3.10;;;1.70;;
4148;SDS011;2088;51.032;7.082;2023-03-15T03:12:12;2.90;;;2.47;;
4148;SDS011;2088;51.032;7.082;2023-03-15T03:14:39;2.40;;;2.17;;
4148;SDS011;2088;51.032;7.082;2023-03-15T03:17:07;3.23;;;2.23;;
4148;SDS011;2088;51.032;7.082;2023-03-15T03:19:35;3.73;;;2.10;;
4148;SDS011;2088;51.032;7.082;2023-03-15T03:22:03;3.43;;;1.70;;
4148;SDS011;2088;51.032;7.082;2023-03-15T03:24:30;4.43;;;2.20;;
4148;SDS011;2088;51.032;7.082;2023-03-15T03:26:57;5.40;;;2.37;;
4148;SDS011;2088;51.032;7.082;2023-03-15T03:29:25;2.77;;;1.80;;
4148;SDS011;2088;51.032;7.082;2023-03-15T03:31:52;7.47;;;2.30;;
4148;SDS011;2088;51.032;7.082;2023-03-15T03:34:19;3.03;;;1.63;;
4148;SDS011;2088;51.032;7.082;2023-03-15T03:36:47;2.40;;;1.77;;
4148;SDS011;2088;51.032;7.082;2023-03-15T03:39:14;1.77;;;1.63;;
4148;SDS011;2088;51.032;7.082;2023-03-15T03:41:41;2.17;;;1.83;;
4148;SDS011;2088;51.032;7.082;2023-03-15T03:44:08;4.30;;;2.27;;
4148;SDS011;2088;51.032;7.082;2023-03-15T03:46:35;2.63;;;1.97;;
4148;SDS011;2088;51.032;7.082;2023-03-15T03:49:02;1.80;;;1.70;;
4148;SDS011;2088;51.032;7.082;2023-03-15T03:51:29;1.97;;;1.77;;
4148;SDS011;2088;51.032;7.082;2023-03-15T03:53:59;4.40;;;3.30;;
4148;SDS011;2088;51.032;7.082;2023-03-15T03:56:26;4.40;;;1.57;;
4148;SDS011;2088;51.032;7.082;2023-03-15T03:58:53;2.03;;;1.83;;
4148;SDS011;2088;51.032;7.082;2023-03-15T04:01:20;2.67;;;2.03;;
4148;SDS011;2088;51.032;7.082;2023-03-15T04:03:47;5.87;;;2.77;;
4148;SDS011;2088;51.032;7.082;2023-03-15T04:06:15;3.20;;;2.57;;
4148;SDS011;2088;51.032;7.082;2023-03-15T04:08:42;5.27;;;2.30;;
4148;SDS011;2088;51.032;7.082;2023-03-15T04:11:10;2.97;;;1.97;;
4148;SDS011;2088;51.032;7.082;2023-03-15T04:13:41;3.20;;;2.40;;
4148;SDS011;2088;51.032;7.082;2023-03-15T04:16:08;6.50;;;2.33;;
4148;SDS011;2088;51.032;7.082;2023-03-15T04:18:36;2.63;;;2.43;;
4148;SDS011;2088;51.032;7.082;2023-03-15T04:21:04;3.73;;;2.30;;
4148;SDS011;2088;51.032;7.082;2023-03-15T04:23:34;2.40;;;1.90;;
4148;SDS011;2088;51.032;7.082;2023-03-15T04:26:02;3.27;;;1.90;;
4148;SDS011;2088;51.032;7.082;2023-03-15T04:28:31;3.13;;;2.23;;
4148;SDS011;2088;51.032;7.082;2023-03-15T04:30:58;3.93;;;2.67;;
4148;SDS011;2088;51.032;7.082;2023-03-15T04:33:25;3.03;;;2.63;;
4148;SDS011;2088;51.032;7.082;2023-03-15T04:35:53;4.23;;;3.30;;
4148;SDS011;2088;51.032;7.082;2023-03-15T04:38:21;5.30;;;2.83;;
4148;SDS011;2088;51.032;7.082;2023-03-15T04:40:50;5.73;;;2.97;;
4148;SDS011;2088;51.032;7.082;2023-03-15T04:43:18;3.33;;;2.83;;
4148;SDS011;2088;51.032;7.082;2023-03-15T04:45:47;6.07;;;3.60;;
4148;SDS011;2088;51.032;7.082;2023-03-15T04:48:14;3.40;;;2.73;;
4148;SDS011;2088;51.032;7.082;2023-03-15T04:50:41;4.57;;;3.67;;
4148;SDS011;2088;51.032;7.082;2023-03-15T04:53:08;11.13;;;2.80;;
4148;SDS011;2088;51.032;7.082;2023-03-15T04:55:35;9.33;;;3.07;;
4148;SDS011;2088;51.032;7.082;2023-03-15T04:58:02;3.57;;;3.20;;
4148;SDS011;2088;51.032;7.082;2023-03-15T05:00:29;3.37;;;2.67;;
4148;SDS011;2088;51.032;7.082;2023-03-15T05:02:57;3.10;;;2.77;;
4148;SDS011;2088;51.032;7.082;2023-03-15T05:05:24;3.27;;;2.90;;
4148;SDS011;2088;51.032;7.082;2023-03-15T05:07:53;3.50;;;3.20;;
4148;SDS011;2088;51.032;7.082;2023-03-15T05:10:20;3.83;;;2.90;;
4148;SDS011;2088;51.032;7.082;2023-03-15T05:12:47;6.47;;;3.40;;
4148;SDS011;2088;51.032;7.082;2023-03-15T05:15:14;4.20;;;3.10;;
4148;SDS011;2088;51.032;7.082;2023-03-15T05:17:41;7.53;;;4.27;;
4148;SDS011;2088;51.032;7.082;2023-03-15T05:20:12;6.17;;;4.30;;
4148;SDS011;2088;51.032;7.082;2023-03-15T05:22:39;8.30;;;4.80;;
4148;SDS011;2088;51.032;7.082;2023-03-15T05:25:07;7.93;;;4.13;;
4148;SDS011;2088;51.032;7.082;2023-03-15T05:27:35;4.60;;;3.73;;
4148;SDS011;2088;51.032;7.082;2023-03-15T05:30:02;5.33;;;3.97;;
4148;SDS011;2088;51.032;7.082;2023-03-15T05:32:29;5.33;;;3.30;;
4148;SDS011;2088;51.032;7.082;2023-03-15T05:34:58;11.03;;;4.80;;
4148;SDS011;2088;51.032;7.082;2023-03-15T05:37:27;6.00;;;4.27;;
4148;SDS011;2088;51.032;7.082;2023-03-15T05:39:56;5.83;;;4.50;;
4148;SDS011;2088;51.032;7.082;2023-03-15T05:42:23;6.80;;;4.47;;
4148;SDS011;2088;51.032;7.082;2023-03-15T05:44:51;13.40;;;8.13;;
4148;SDS011;2088;51.032;7.082;2023-03-15T05:47:18;9.63;;;4.97;;
4148;SDS011;2088;51.032;7.082;2023-03-15T05:49:45;9.50;;;4.50;;
4148;SDS011;2088;51.032;7.082;2023-03-15T05:52:13;4.80;;;4.03;;
4148;SDS011;2088;51.032;7.082;2023-03-15T05:54:41;6.70;;;4.50;;
4148;SDS011;2088;51.032;7.082;2023-03-15T05:57:09;7.20;;;4.63;;
4148;SDS011;2088;51.032;7.082;2023-03-15T05:59:36;9.93;;;4.23;;
4148;SDS011;2088;51.032;7.082;2023-03-15T06:02:03;5.27;;;4.00;;
4148;SDS011;2088;51.032;7.082;2023-03-15T06:04:30;7.40;;;4.87;;
4148;SDS011;2088;51.032;7.082;2023-03-15T06:06:57;7.37;;;4.97;;
4148;SDS011;2088;51.032;7.082;2023-03-15T06:09:24;7.50;;;4.10;;
4148;SDS011;2088;51.032;7.082;2023-03-15T06:11:52;10.10;;;4.63;;
4148;SDS011;2088;51.032;7.082;2023-03-15T06:14:20;7.77;;;4.80;;
4148;SDS011;2088;51.032;7.082;2023-03-15T06:16:47;10.20;;;5.63;;
4148;SDS011;2088;51.032;7.082;2023-03-15T06:19:14;10.53;;;5.80;;
4148;SDS011;2088;51.032;7.082;2023-03-15T06:21:41;10.27;;;6.20;;
4148;SDS011;2088;51.032;7.082;2023-03-15T06:24:08;9.30;;;6.33;;
4148;SDS011;2088;51.032;7.082;2023-03-15T06:26:35;8.53;;;5.83;;
4148;SDS011;2088;51.032;7.082;2023-03-15T06:29:03;10.27;;;5.60;;
4148;SDS011;2088;51.032;7.082;2023-03-15T06:31:31;25.57;;;6.00;;
4148;SDS011;2088;51.032;7.082;2023-03-15T06:33:58;8.90;;;4.77;;
4148;SDS011;2088;51.032;7.082;2023-03-15T06:36:25;8.67;;;6.10;;
4148;SDS011;2088;51.032;7.082;2023-03-15T06:38:52;11.93;;;7.27;;
4148;SDS011;2088;51.032;7.082;2023-03-15T06:41:19;13.20;;;6.23;;
4148;SDS011;2088;51.032;7.082;2023-03-15T06:43:46;11.80;;;6.17;;
4148;SDS011;2088;51.032;7.082;2023-03-15T06:46:15;14.27;;;6.37;;
4148;SDS011;2088;51.032;7.082;2023-03-15T06:48:42;9.70;;;5.77;;
4148;SDS011;2088;51.032;7.082;2023-03-15T06:51:09;10.40;;;5.67;;
4148;SDS011;2088;51.032;7.082;2023-03-15T06:53:36;9.73;;;5.20;;
4148;SDS011;2088;51.032;7.082;2023-03-15T06:56:03;13.03;;;6.73;;
4148;SDS011;2088;51.032;7.082;2023-03-15T06:58:30;7.50;;;5.10;;
4148;SDS011;2088;51.032;7.082;2023-03-15T07:00:57;10.73;;;6.77;;
4148;SDS011;2088;51.032;7.082;2023-03-15T07:03:26;10.80;;;6.13;;
4148;SDS011;2088;51.032;7.082;2023-03-15T07:05:53;11.80;;;6.07;;
4148;SDS011;2088;51.032;7.082;2023-03-15T07:08:20;8.40;;;5.20;;
4148;SDS011;2088;51.032;7.082;2023-03-15T07:10:47;10.80;;;6.17;;
4148;SDS011;2088;51.032;7.082;2023-03-15T07:13:15;12.27;;;5.93;;
4148;SDS011;2088;51.032;7.082;2023-03-15T07:15:42;9.03;;;5.27;;
4148;SDS011;2088;51.032;7.082;2023-03-15T07:18:11;8.83;;;5.93;;
4148;SDS011;2088;51.032;7.082;2023-03-15T07:20:40;13.10;;;6.70;;
4148;SDS011;2088;51.032;7.082;2023-03-15T07:23:07;10.97;;;6.30;;
4148;SDS011;2088;51.032;7.082;2023-03-15T07:25:34;9.23;;;5.20;;
4148;SDS011;2088;51.032;7.082;2023-03-15T07:28:01;7.10;;;4.50;;
4148;SDS011;2088;51.032;7.082;2023-03-15T07:30:28;10.17;;;5.80;;
4148;SDS011;2088;51.032;7.082;2023-03-15T07:32:55;8.37;;;5.10;;
4148;SDS011;2088;51.032;7.082;2023-03-15T07:35:22;7.77;;;4.63;;
4148;SDS011;2088;51.032;7.082;2023-03-15T07:37:50;11.70;;;5.50;;
4148;SDS011;2088;51.032;7.082;2023-03-15T07:40:18;12.90;;;5.27;;
4148;SDS011;2088;51.032;7.082;2023-03-15T07:42:45;7.27;;;4.33;;
4148;SDS011;2088;51.032;7.082;2023-03-15T07:45:12;10.17;;;5.43;;
4148;SDS011;2088;51.032;7.082;2023-03-15T07:47:39;10.40;;;6.10;;
4148;SDS011;2088;51.032;7.082;2023-03-15T07:50:06;8.30;;;5.03;;
4148;SDS011;2088;51.032;7.082;2023-03-15T07:52:33;13.20;;;5.87;;
4148;SDS011;2088;51.032;7.082;2023-03-15T07:55:02;14.20;;;6.37;;
4148;SDS011;2088;51.032;7.082;2023-03-15T07:57:32;11.07;;;6.43;;
4148;SDS011;2088;51.032;7.082;2023-03-15T07:59:59;7.67;;;5.47;;
4148;SDS011;2088;51.032;7.082;2023-03-15T08:02:26;10.43;;;5.90;;
4148;SDS011;2088;51.032;7.082;2023-03-15T08:04:53;14.03;;;6.53;;
4148;SDS011;2088;51.032;7.082;2023-03-15T08:07:20;12.90;;;7.00;;
4148;SDS011;2088;51.032;7.082;2023-03-15T08:09:47;13.10;;;7.53;;
4148;SDS011;2088;51.032;7.082;2023-03-15T08:12:16;11.70;;;7.30;;
4148;SDS011;2088;51.032;7.082;2023-03-15T08:14:43;14.93;;;8.10;;
4148;SDS011;2088;51.032;7.082;2023-03-15T08:17:10;18.90;;;8.33;;
4148;SDS011;2088;51.032;7.082;2023-03-15T08:19:37;12.23;;;7.07;;
4148;SDS011;2088;51.032;7.082;2023-03-15T08:22:05;14.40;;;8.13;;
4148;SDS011;2088;51.032;7.082;2023-03-15T08:24:32;25.03;;;8.13;;
4148;SDS011;2088;51.032;7.082;2023-03-15T08:26:59;16.13;;;8.40;;
4148;SDS011;2088;51.032;7.082;2023-03-15T08:29:27;13.33;;;7.80;;
4148;SDS011;2088;51.032;7.082;2023-03-15T08:31:54;17.83;;;7.87;;
4148;SDS011;2088;51.032;7.082;2023-03-15T08:34:21;13.80;;;8.30;;
4148;SDS011;2088;51.032;7.082;2023-03-15T08:36:49;16.50;;;7.40;;
4148;SDS011;2088;51.032;7.082;2023-03-15T08:39:16;12.87;;;7.23;;
4148;SDS011;2088;51.032;7.082;2023-03-15T08:41:43;12.40;;;7.30;;
4148;SDS011;2088;51.032;7.082;2023-03-15T08:44:11;15.00;;;7.17;;
4148;SDS011;2088;51.032;7.082;2023-03-15T08:46:39;14.73;;;8.30;;
4148;SDS011;2088;51.032;7.082;2023-03-15T08:49:06;15.40;;;7.20;;
4148;SDS011;2088;51.032;7.082;2023-03-15T08:51:33;14.37;;;7.70;;
4148;SDS011;2088;51.032;7.082;2023-03-15T08:54:00;14.03;;;6.40;;
4148;SDS011;2088;51.032;7.082;2023-03-15T08:56:29;7.73;;;5.40;;
4148;SDS011;2088;51.032;7.082;2023-03-15T08:58:57;8.93;;;6.00;;
4148;SDS011;2088;51.032;7.082;2023-03-15T09:01:24;9.20;;;6.43;;
4148;SDS011;2088;51.032;7.082;2023-03-15T09:03:55;9.30;;;6.47;;
4148;SDS011;2088;51.032;7.082;2023-03-15T09:06:22;13.70;;;6.70;;
4148;SDS011;2088;51.032;7.082;2023-03-15T09:08:49;13.73;;;5.93;;
4148;SDS011;2088;51.032;7.082;2023-03-15T09:11:17;15.53;;;7.30;;
4148;SDS011;2088;51.032;7.082;2023-03-15T09:13:44;12.03;;;6.50;;
4148;SDS011;2088;51.032;7.082;2023-03-15T09:16:11;11.23;;;6.90;;
4148;SDS011;2088;51.032;7.082;2023-03-15T09:18:39;10.80;;;7.27;;
4148;SDS011;2088;51.032;7.082;2023-03-15T09:21:09;7.97;;;5.10;;
4148;SDS011;2088;51.032;7.082;2023-03-15T09:23:36;13.30;;;5.87;;
4148;SDS011;2088;51.032;7.082;2023-03-15T09:26:03;10.23;;;5.53;;
4148;SDS011;2088;51.032;7.082;2023-03-15T09:28:31;11.43;;;6.50;;
4148;SDS011;2088;51.032;7.082;2023-03-15T09:30:59;9.97;;;4.43;;
4148;SDS011;2088;51.032;7.082;2023-03-15T09:33:29;7.20;;;4.03;;
4148;SDS011;2088;51.032;7.082;2023-03-15T09:35:57;6.60;;;4.70;;
4148;SDS011;2088;51.032;7.082;2023-03-15T09:38:25;8.10;;;5.60;;
4148;SDS011;2088;51.032;7.082;2023-03-15T09:40:55;6.37;;;5.37;;
4148;SDS011;2088;51.032;7.082;2023-03-15T09:43:30;7.73;;;4.90;;
4148;SDS011;2088;51.032;7.082;2023-03-15T09:46:03;8.13;;;3.67;;
4148;SDS011;2088;51.032;7.082;2023-03-15T09:48:36;5.60;;;3.93;;
4148;SDS011;2088;51.032;7.082;2023-03-15T09:51:05;10.70;;;3.83;;
4148;SDS011;2088;51.032;7.082;2023-03-15T09:53:36;8.17;;;4.27;;
4148;SDS011;2088;51.032;7.082;2023-03-15T09:56:10;22.20;;;5.00;;
4148;SDS011;2088;51.032;7.082;2023-03-15T09:58:44;7.27;;;5.10;;
4148;SDS011;2088;51.032;7.082;2023-03-15T10:01:12;5.67;;;3.70;;
4148;SDS011;2088;51.032;7.082;2023-03-15T10:03:41;6.30;;;4.60;;
4148;SDS011;2088;51.032;7.082;2023-03-15T10:06:11;9.30;;;4.60;;
4148;SDS011;2088;51.032;7.082;2023-03-15T10:08:40;6.90;;;3.67;;
4148;SDS011;2088;51.032;7.082;2023-03-15T10:11:08;5.93;;;3.70;;
4148;SDS011;2088;51.032;7.082;2023-03-15T10:13:41;8.00;;;3.77;;
4148;SDS011;2088;51.032;7.082;2023-03-15T10:16:18;10.93;;;4.90;;
4148;SDS011;2088;51.032;7.082;2023-03-15T10:18:53;11.50;;;4.00;;
4148;SDS011;2088;51.032;7.082;2023-03-15T10:21:26;4.87;;;3.87;;
4148;SDS011;2088;51.032;7.082;2023-03-15T10:23:57;5.40;;;3.97;;
4148;SDS011;2088;51.032;7.082;2023-03-15T10:26:26;10.37;;;2.83;;
4148;SDS011;2088;51.032;7.082;2023-03-15T10:28:53;7.40;;;4.40;;
4148;SDS011;2088;51.032;7.082;2023-03-15T10:31:22;8.87;;;2.90;;
4148;SDS011;2088;51.032;7.082;2023-03-15T10:33:51;3.63;;;2.93;;
4148;SDS011;2088;51.032;7.082;2023-03-15T10:36:19;3.30;;;2.60;;
4148;SDS011;2088;51.032;7.082;2023-03-15T10:38:46;5.10;;;3.20;;
4148;SDS011;2088;51.032;7.082;2023-03-15T10:41:26;6.70;;;3.50;;
4148;SDS011;2088;51.032;7.082;2023-03-15T10:43:57;10.40;;;3.67;;
4148;SDS011;2088;51.032;7.082;2023-03-15T10:46:24;9.50;;;3.63;;
4148;SDS011;2088;51.032;7.082;2023-03-15T10:48:52;5.60;;;3.00;;
4148;SDS011;2088;51.032;7.082;2023-03-15T10:51:23;5.60;;;3.97;;
4148;SDS011;2088;51.032;7.082;2023-03-15T10:53:52;7.17;;;3.40;;
4148;SDS011;2088;51.032;7.082;2023-03-15T10:56:21;10.03;;;3.30;;
4148;SDS011;2088;51.032;7.082;2023-03-15T10:58:51;16.20;;;5.93;;
4148;SDS011;2088;51.032;7.082;2023-03-15T11:01:23;4.00;;;2.77;;
4148;SDS011;2088;51.032;7.082;2023-03-15T11:04:00;5.63;;;2.80;;
4148;SDS011;2088;51.032;7.082;2023-03-15T11:06:28;12.27;;;3.27;;
4148;SDS011;2088;51.032;7.082;2023-03-15T11:09:06;9.00;;;3.57;;
4148;SDS011;2088;51.032;7.082;2023-03-15T11:11:47;7.67;;;2.27;;
4148;SDS011;2088;51.032;7.082;2023-03-15T11:14:16;5.10;;;2.77;;
4148;SDS011;2088;51.032;7.082;2023-03-15T11:16:45;6.80;;;2.93;;
4148;SDS011;2088;51.032;7.082;2023-03-15T11:19:14;4.47;;;2.10;;
4148;SDS011;2088;51.032;7.082;2023-03-15T11:21:42;3.67;;;2.53;;
4148;SDS011;2088;51.032;7.082;2023-03-15T11:24:17;4.43;;;2.37;;
4148;SDS011;2088;51.032;7.082;2023-03-15T11:26:45;13.57;;;4.37;;
4148;SDS011;2088;51.032;7.082;2023-03-15T11:29:20;4.00;;;2.30;;
4148;SDS011;2088;51.032;7.082;2023-03-15T11:31:47;6.33;;;2.37;;
4148;SDS011;2088;51.032;7.082;2023-03-15T11:34:15;5.20;;;2.90;;
4148;SDS011;2088;51.032;7.082;2023-03-15T11:36:43;6.60;;;3.20;;
4148;SDS011;2088;51.032;7.082;2023-03-15T11:39:13;3.10;;;1.80;;
4148;SDS011;2088;51.032;7.082;2023-03-15T11:41:41;6.90;;;1.87;;
4148;SDS011;2088;51.032;7.082;2023-03-15T11:44:11;2.20;;;1.63;;
4148;SDS011;2088;51.032;7.082;2023-03-15T11:46:41;4.70;;;2.93;;
4148;SDS011;2088;51.032;7.082;2023-03-15T11:49:11;5.53;;;2.10;;
4148;SDS011;2088;51.032;7.082;2023-03-15T11:51:40;6.00;;;3.50;;
4148;SDS011;2088;51.032;7.082;2023-03-15T11:54:08;6.53;;;2.43;;
4148;SDS011;2088;51.032;7.082;2023-03-15T11:56:44;7.20;;;1.63;;
4148;SDS011;2088;51.032;7.082;2023-03-15T11:59:14;4.53;;;1.83;;
4148;SDS011;2088;51.032;7.082;2023-03-15T12:01:43;4.83;;;1.80;;
4148;SDS011;2088;51.032;7.082;2023-03-15T12:07:27;21.03;;;2.50;;
4148;SDS011;2088;51.032;7.082;2023-03-15T12:09:55;2.10;;;1.80;;
4148;SDS011;2088;51.032;7.082;2023-03-15T12:12:35;4.07;;;2.03;;
4148;SDS011;2088;51.032;7.082;2023-03-15T12:15:04;2.67;;;1.70;;
4148;SDS011;2088;51.032;7.082;2023-03-15T12:17:38;5.17;;;1.47;;
4148;SDS011;2088;51.032;7.082;2023-03-15T12:20:12;4.30;;;1.60;;
4148;SDS011;2088;51.032;7.082;2023-03-15T12:22:45;5.43;;;1.50;;
4148;SDS011;2088;51.032;7.082;2023-03-15T12:25:14;4.70;;;1.67;;
4148;SDS011;2088;51.032;7.082;2023-03-15T12:27:43;4.57;;;1.50;;
4148;SDS011;2088;51.032;7.082;2023-03-15T12:30:15;5.83;;;1.33;;
4148;SDS011;2088;51.032;7.082;2023-03-15T12:32:48;2.53;;;1.40;;
4148;SDS011;2088;51.032;7.082;2023-03-15T12:35:16;1.97;;;1.47;;
4148;SDS011;2088;51.032;7.082;2023-03-15T12:37:45;4.70;;;1.47;;
4148;SDS011;2088;51.032;7.082;2023-03-15T12:40:35;1.93;;;1.10;;
4148;SDS011;2088;51.032;7.082;2023-03-15T12:43:03;3.93;;;1.50;;
4148;SDS011;2088;51.032;7.082;2023-03-15T12:45:34;5.90;;;1.40;;
4148;SDS011;2088;51.032;7.082;2023-03-15T12:48:19;1.67;;;1.23;;
4148;SDS011;2088;51.032;7.082;2023-03-15T12:53:35;3.70;;;1.40;;
4148;SDS011;2088;51.032;7.082;2023-03-15T12:58:52;1.83;;;1.20;;
4148;SDS011;2088;51.032;7.082;2023-03-15T13:01:21;3.50;;;1.60;;
4148;SDS011;2088;51.032;7.082;2023-03-15T13:03:52;6.33;;;1.77;;
4148;SDS011;2088;51.032;7.082;2023-03-15T13:06:21;3.83;;;1.80;;
4148;SDS011;2088;51.032;7.082;2023-03-15T13:08:53;4.80;;;1.67;;
4148;SDS011;2088;51.032;7.082;2023-03-15T13:11:25;3.20;;;1.37;;
4148;SDS011;2088;51.032;7.082;2023-03-15T13:14:06;3.53;;;1.30;;
4148;SDS011;2088;51.032;7.082;2023-03-15T13:16:35;4.43;;;1.40;;
4148;SDS011;2088;51.032;7.082;2023-03-15T13:19:14;2.70;;;1.43;;
4148;SDS011;2088;51.032;7.082;2023-03-15T13:21:49;5.00;;;1.70;;
4148;SDS011;2088;51.032;7.082;2023-03-15T13:24:19;4.53;;;1.63;;
4148;SDS011;2088;51.032;7.082;2023-03-15T13:26:49;5.33;;;1.93;;
4148;SDS011;2088;51.032;7.082;2023-03-15T13:29:21;7.43;;;1.87;;
4148;SDS011;2088;51.032;7.082;2023-03-15T13:31:58;7.07;;;1.40;;
4148;SDS011;2088;51.032;7.082;2023-03-15T13:34:26;8.90;;;1.90;;
4148;SDS011;2088;51.032;7.082;2023-03-15T13:36:56;7.03;;;2.33;;
4148;SDS011;2088;51.032;7.082;2023-03-15T13:39:25;6.70;;;1.50;;
4148;SDS011;2088;51.032;7.082;2023-03-15T13:41:55;3.40;;;1.50;;
4148;SDS011;2088;51.032;7.082;2023-03-15T13:44:23;6.10;;;1.50;;
4148;SDS011;2088;51.032;7.082;2023-03-15T13:46:51;3.13;;;1.90;;
4148;SDS011;2088;51.032;7.082;2023-03-15T13:49:18;3.83;;;1.30;;
4148;SDS011;2088;51.032;7.082;2023-03-15T13:51:47;1.60;;;1.10;;
4148;SDS011;2088;51.032;7.082;2023-03-15T13:54:16;6.20;;;1.30;;
4148;SDS011;2088;51.032;7.082;2023-03-15T13:56:57;2.20;;;1.10;;
4148;SDS011;2088;51.032;7.082;2023-03-15T13:59:26;1.10;;;1.00;;
4148;SDS011;2088;51.032;7.082;2023-03-15T14:01:56;2.00;;;1.40;;
4148;SDS011;2088;51.032;7.082;2023-03-15T14:04:24;4.20;;;1.23;;
4148;SDS011;2088;51.032;7.082;2023-03-15T14:07:01;3.40;;;1.43;;
4148;SDS011;2088;51.032;7.082;2023-03-15T14:09:31;1.10;;;0.97;;
4148;SDS011;2088;51.032;7.082;2023-03-15T14:12:01;7.10;;;1.20;;
4148;SDS011;2088;51.032;7.082;2023-03-15T14:14:29;1.40;;;0.93;;
4148;SDS011;2088;51.032;7.082;2023-03-15T14:16:57;1.93;;;1.37;;
4148;SDS011;2088;51.032;7.082;2023-03-15T14:19:26;4.10;;;1.67;;
4148;SDS011;2088;51.032;7.082;2023-03-15T14:21:54;1.50;;;1.03;;
4148;SDS011;2088;51.032;7.082;2023-03-15T14:24:25;4.27;;;1.77;;
4148;SDS011;2088;51.032;7.082;2023-03-15T14:26:53;3.67;;;1.57;;
4148;SDS011;2088;51.032;7.082;2023-03-15T14:29:24;1.83;;;1.00;;
4148;SDS011;2088;51.032;7.082;2023-03-15T14:31:57;3.57;;;1.10;;
4148;SDS011;2088;51.032;7.082;2023-03-15T14:34:29;3.47;;;1.47;;
4148;SDS011;2088;51.032;7.082;2023-03-15T14:36:57;1.83;;;1.57;;
4148;SDS011;2088;51.032;7.082;2023-03-15T14:39:30;4.83;;;1.60;;
4148;SDS011;2088;51.032;7.082;2023-03-15T14:41:57;3.10;;;1.20;;
4148;SDS011;2088;51.032;7.082;2023-03-15T14:44:24;5.63;;;1.53;;
4148;SDS011;2088;51.032;7.082;2023-03-15T14:46:52;4.30;;;1.80;;
4148;SDS011;2088;51.032;7.082;2023-03-15T14:49:21;5.20;;;2.30;;
4148;SDS011;2088;51.032;7.082;2023-03-15T14:51:50;3.23;;;1.10;;
4148;SDS011;2088;51.032;7.082;2023-03-15T14:54:18;3.20;;;1.60;;
4148;SDS011;2088;51.032;7.082;2023-03-15T14:56:46;3.57;;;1.20;;
4148;SDS011;2088;51.032;7.082;2023-03-15T14:59:13;1.87;;;1.27;;
4148;SDS011;2088;51.032;7.082;2023-03-15T15:01:41;3.53;;;1.13;;
4148;SDS011;2088;51.032;7.082;2023-03-15T15:04:10;2.63;;;1.47;;
4148;SDS011;2088;51.032;7.082;2023-03-15T15:06:38;8.40;;;1.30;;
4148;SDS011;2088;51.032;7.082;2023-03-15T15:09:17;1.60;;;1.40;;
4148;SDS011;2088;51.032;7.082;2023-03-15T15:11:46;1.83;;;1.07;;
4148;SDS011;2088;51.032;7.082;2023-03-15T15:14:13;3.57;;;1.20;;
4148;SDS011;2088;51.032;7.082;2023-03-15T15:16:40;4.20;;;1.10;;
4148;SDS011;2088;51.032;7.082;2023-03-15T15:19:08;2.70;;;1.30;;
4148;SDS011;2088;51.032;7.082;2023-03-15T15:21:35;1.90;;;1.67;;
4148;SDS011;2088;51.032;7.082;2023-03-15T15:24:03;4.70;;;1.00;;
4148;SDS011;2088;51.032;7.082;2023-03-15T15:26:31;3.47;;;1.57;;
4148;SDS011;2088;51.032;7.082;2023-03-15T15:29:00;6.73;;;1.47;;
4148;SDS011;2088;51.032;7.082;2023-03-15T15:31:28;1.80;;;1.50;;
4148;SDS011;2088;51.032;7.082;2023-03-15T15:33:58;2.70;;;1.17;;